createdAt,value
2022-09-12T00:01:47.415Z,10.66
2022-09-12T00:03:48.856Z,10.73
2022-09-12T00:05:50.396Z,10.73
2022-09-12T00:07:52.194Z,10.75
2022-09-12T00:09:53.618Z,10.66
2022-09-12T00:11:54.585Z,10.55
2022-09-12T00:13:55.524Z,10.49
2022-09-12T00:15:57.430Z,10.49
2022-09-12T00:17:59.302Z,10.51
2022-09-12T00:20:01.224Z,10.5
2022-09-12T00:22:02.876Z,10.46
2022-09-12T00:26:06.318Z,10.31
2022-09-12T00:28:07.840Z,10.28
2022-09-12T00:30:09.328Z,10.17
2022-09-12T00:32:10.919Z,10.14
2022-09-12T00:34:12.821Z,10.22
2022-09-12T00:36:13.797Z,10.16
2022-09-12T00:38:15.217Z,10.17
2022-09-12T00:40:17.084Z,10.21
2022-09-12T00:42:18.235Z,10.17
2022-09-12T00:44:20.040Z,10.1
2022-09-12T00:46:21.362Z,10.07
2022-09-12T00:48:22.947Z,10.02
2022-09-12T00:50:24.015Z,9.92
2022-09-12T00:52:25.364Z,9.8
2022-09-12T00:54:26.734Z,9.84
2022-09-12T00:56:28.335Z,9.93
2022-09-12T00:58:29.729Z,9.97
2022-09-12T01:00:31.297Z,10.02
2022-09-12T01:02:33.139Z,9.94
2022-09-12T01:04:34.419Z,9.92
2022-09-12T01:06:36.343Z,9.87
2022-09-12T01:08:37.888Z,9.84
2022-09-12T01:10:39.811Z,9.78
2022-09-12T01:12:41.715Z,9.73
2022-09-12T01:14:43.557Z,9.66
2022-09-12T01:16:44.897Z,9.54
2022-09-12T01:18:46.071Z,9.42
2022-09-12T01:20:47.415Z,9.35
2022-09-12T01:22:49.370Z,9.57
2022-09-12T01:24:50.764Z,9.7
2022-09-12T01:26:52.644Z,9.72
2022-09-12T01:28:54.353Z,9.69
2022-09-12T01:30:56.210Z,9.69
2022-09-12T01:32:57.895Z,9.67
2022-09-12T01:34:59.329Z,9.64
2022-09-12T01:37:01.205Z,9.71
2022-09-12T01:39:02.289Z,9.68
2022-09-12T01:41:03.723Z,9.79
2022-09-12T01:43:04.734Z,9.73
2022-09-12T01:45:05.824Z,9.6
2022-09-12T01:47:07.403Z,9.55
2022-09-12T01:49:09.228Z,9.48
2022-09-12T01:51:10.636Z,9.45
2022-09-12T01:53:11.605Z,9.51
2022-09-12T01:55:13.382Z,9.61
2022-09-12T01:57:14.325Z,9.58
2022-09-12T01:59:16.071Z,9.62
2022-09-12T02:01:17.591Z,9.69
2022-09-12T02:03:18.718Z,9.69
2022-09-12T02:05:20.158Z,9.66
2022-09-12T02:07:21.790Z,9.65
2022-09-12T02:09:23.024Z,9.67
2022-09-12T02:11:24.299Z,9.64
2022-09-12T02:13:25.901Z,9.67
2022-09-12T02:15:27.389Z,9.65
2022-09-12T02:17:28.926Z,9.64
2022-09-12T02:19:30.360Z,9.64
2022-09-12T02:21:32.083Z,9.6
2022-09-12T02:23:33.373Z,9.51
2022-09-12T02:25:34.867Z,9.5
2022-09-12T02:27:35.910Z,9.43
2022-09-12T02:29:37.807Z,9.43
2022-09-12T02:31:39.455Z,9.44
2022-09-12T02:33:40.912Z,9.45
2022-09-12T02:35:42.557Z,9.42
2022-09-12T02:37:44.081Z,9.41
2022-09-12T02:39:45.695Z,9.38
2022-09-12T02:41:47.002Z,9.33
2022-09-12T02:43:48.096Z,9.31
2022-09-12T02:45:49.842Z,9.32
2022-09-12T02:47:51.311Z,9.31
2022-09-12T02:49:53.006Z,9.33
2022-09-12T02:51:54.903Z,9.31
2022-09-12T02:53:56.431Z,9.29
2022-09-12T02:55:57.800Z,9.3
2022-09-12T02:57:58.892Z,9.22
2022-09-12T03:00:00.349Z,9.17
2022-09-12T03:02:01.864Z,9.08
2022-09-12T03:04:03.021Z,9.05
2022-09-12T03:06:04.911Z,9.04
2022-09-12T03:08:06.779Z,9.04
2022-09-12T03:10:08.723Z,9.04
2022-09-12T03:12:10.018Z,9.01
2022-09-12T03:14:11.902Z,9.02
2022-09-12T03:16:13.150Z,9
2022-09-12T03:18:14.338Z,8.97
2022-09-12T03:20:15.754Z,8.93
2022-09-12T03:22:16.815Z,8.89
2022-09-12T03:24:18.822Z,8.96
2022-09-12T03:26:20.289Z,8.97
2022-09-12T03:28:21.530Z,9.03
2022-09-12T03:30:23.356Z,8.99
2022-09-12T03:32:24.927Z,9.02
2022-09-12T03:34:26.203Z,8.95
2022-09-12T03:36:27.667Z,8.95
2022-09-12T03:38:28.648Z,8.93
2022-09-12T03:40:30.395Z,8.88
2022-09-12T03:42:31.844Z,8.97
2022-09-12T03:44:33.347Z,9.02
2022-09-12T03:46:34.533Z,9.07
2022-09-12T03:48:35.863Z,9.05
2022-09-12T03:50:37.337Z,9
2022-09-12T03:52:38.936Z,8.93
2022-09-12T03:54:40.708Z,8.96
2022-09-12T03:56:41.870Z,9
2022-09-12T03:58:43.428Z,9.05
2022-09-12T04:00:45.218Z,9.05
2022-09-12T04:02:47.039Z,9.05
2022-09-12T04:04:48.870Z,9
2022-09-12T04:06:50.628Z,8.94
2022-09-12T04:08:51.620Z,8.85
2022-09-12T04:10:53.016Z,8.83
2022-09-12T04:12:54.483Z,8.83
2022-09-12T04:14:55.480Z,8.77
2022-09-12T04:16:56.671Z,8.73
2022-09-12T04:18:57.757Z,8.71
2022-09-12T04:20:58.682Z,8.76
2022-09-12T04:22:59.817Z,8.77
2022-09-12T04:25:01.724Z,8.79
2022-09-12T04:27:07.249Z,8.8
2022-09-12T04:29:04.704Z,8.82
2022-09-12T04:31:06.311Z,8.79
2022-09-12T04:33:08.171Z,8.82
2022-09-12T04:35:09.151Z,8.82
2022-09-12T04:37:10.509Z,8.82
2022-09-12T04:39:11.546Z,8.8
2022-09-12T04:41:13.335Z,8.79
2022-09-12T04:43:14.975Z,8.79
2022-09-12T04:45:16.879Z,8.79
2022-09-12T04:47:18.630Z,8.79
2022-09-12T04:49:20.550Z,8.79
2022-09-12T04:51:21.894Z,8.8
2022-09-12T04:53:22.855Z,8.76
2022-09-12T04:55:24.593Z,8.81
2022-09-12T04:57:26.210Z,8.82
2022-09-12T04:59:27.463Z,8.86
2022-09-12T05:01:29.276Z,8.86
2022-09-12T05:05:32.236Z,8.81
2022-09-12T05:07:34.193Z,8.74
2022-09-12T05:09:35.089Z,8.77
2022-09-12T05:12:02.464Z,8.71
2022-09-12T05:13:37.998Z,8.71
2022-09-12T05:15:39.663Z,8.8
2022-09-12T05:17:41.391Z,8.72
2022-09-12T05:19:43.310Z,8.73
2022-09-12T05:21:44.759Z,8.78
2022-09-12T05:23:46.037Z,8.78
2022-09-12T05:25:47.637Z,8.74
2022-09-12T05:27:50.570Z,8.63
2022-09-12T05:29:50.325Z,8.66
2022-09-12T05:31:51.979Z,8.76
2022-09-12T05:33:53.022Z,8.77
2022-09-12T05:35:54.629Z,8.75
2022-09-12T05:37:55.867Z,8.76
2022-09-12T05:39:57.528Z,8.82
2022-09-12T05:41:59.437Z,8.85
2022-09-12T05:44:00.439Z,8.78
2022-09-12T05:46:02.283Z,8.83
2022-09-12T05:48:03.703Z,8.82
2022-09-12T05:50:05.515Z,8.88
2022-09-12T05:52:07.209Z,8.92
2022-09-12T05:54:09.023Z,9.05
2022-09-12T05:56:10.278Z,9.15
2022-09-12T05:58:12.014Z,9.22
2022-09-12T06:00:13.878Z,9.17
2022-09-12T06:02:15.231Z,9.29
2022-09-12T06:04:16.736Z,9.38
2022-09-12T06:06:18.101Z,9.37
2022-09-12T06:08:19.265Z,9.25
2022-09-12T06:10:20.334Z,9.18
2022-09-12T06:12:21.262Z,9.32
2022-09-12T06:14:22.436Z,9.29
2022-09-12T06:16:24.379Z,9.22
2022-09-12T06:18:26.091Z,9.3
2022-09-12T06:20:27.150Z,9.45
2022-09-12T06:22:28.677Z,9.34
2022-09-12T06:24:30.579Z,9.52
2022-09-12T06:26:32.238Z,9.46
2022-09-12T06:28:33.923Z,9.5
2022-09-12T06:30:35.842Z,9.72
2022-09-12T06:32:37.521Z,9.62
2022-09-12T06:34:38.805Z,9.66
2022-09-12T06:36:39.772Z,9.73
2022-09-12T06:38:41.084Z,9.66
2022-09-12T06:40:42.601Z,9.72
2022-09-12T06:42:43.615Z,9.68
2022-09-12T06:45:29.036Z,10.05
2022-09-12T06:47:30.621Z,9.94
2022-09-12T06:49:31.763Z,10.01
2022-09-12T06:51:32.695Z,10.04
2022-09-12T06:53:34.385Z,10.22
2022-09-12T06:55:35.435Z,10.17
2022-09-12T06:57:37.233Z,10.21
2022-09-12T06:59:38.752Z,10.19
2022-09-12T07:01:40.184Z,10.25
2022-09-12T07:03:41.681Z,10.31
2022-09-12T07:05:42.987Z,10.24
2022-09-12T07:07:44.736Z,10.28
2022-09-12T07:09:45.845Z,10.28
2022-09-12T07:11:47.411Z,10.24
2022-09-12T07:13:49.011Z,10.44
2022-09-12T07:15:50.078Z,10.46
2022-09-12T07:17:51.257Z,10.06
2022-09-12T07:19:53.080Z,10.28
2022-09-12T07:21:58.000Z,10.52
2022-09-12T07:23:55.013Z,10.48
2022-09-12T07:25:56.579Z,10.55
2022-09-12T07:27:57.662Z,10.67
2022-09-12T07:29:58.735Z,10.75
2022-09-12T07:32:00.035Z,11.06
2022-09-12T07:34:01.181Z,11.16
2022-09-12T07:36:02.576Z,11.11
2022-09-12T07:38:04.129Z,10.79
2022-09-12T07:40:05.537Z,10.83
2022-09-12T07:42:06.812Z,11.35
2022-09-12T07:44:08.014Z,11.7
2022-09-12T07:46:09.914Z,11.6
2022-09-12T07:48:11.442Z,11.82
2022-09-12T07:50:12.950Z,11.84
2022-09-12T07:52:15.701Z,12.08
2022-09-12T07:54:16.646Z,11.77
2022-09-12T07:56:18.255Z,12.09
2022-09-12T07:58:19.520Z,12.07
2022-09-12T08:00:21.176Z,12.13
2022-09-12T08:02:22.222Z,12.07
2022-09-12T08:04:23.579Z,12.05
2022-09-12T08:06:24.792Z,12.29
2022-09-12T08:08:26.238Z,12.04
2022-09-12T08:10:27.248Z,12.45
2022-09-12T08:12:28.391Z,13
2022-09-12T08:14:29.566Z,13.22
2022-09-12T08:16:30.687Z,13.03
2022-09-12T08:18:32.175Z,13.33
2022-09-12T08:20:33.205Z,13.76
2022-09-12T08:22:34.250Z,13.93
2022-09-12T08:24:35.921Z,14.38
2022-09-12T08:26:37.207Z,14.38
2022-09-12T08:28:38.764Z,14.75
2022-09-12T08:30:39.866Z,15.31
2022-09-12T08:32:40.645Z,15.18
2022-09-12T08:34:42.165Z,15.05
2022-09-12T08:36:43.921Z,15.5
2022-09-12T08:38:44.800Z,15.15
2022-09-12T08:40:46.075Z,15.37
2022-09-12T08:42:47.761Z,15.42
2022-09-12T08:44:49.464Z,15.5
2022-09-12T08:46:50.485Z,15.13
2022-09-12T08:48:51.881Z,15.26
2022-09-12T08:50:53.448Z,15.1
2022-09-12T08:52:54.793Z,15.98
2022-09-12T08:54:56.526Z,16.57
2022-09-12T08:56:57.529Z,16.54
2022-09-12T08:58:59.137Z,16.75
2022-09-12T09:01:00.581Z,16.8
2022-09-12T09:03:01.662Z,16.75
2022-09-12T09:05:02.573Z,16.83
2022-09-12T09:07:03.592Z,16.86
2022-09-12T09:09:04.871Z,17.31
2022-09-12T09:11:06.462Z,16.82
2022-09-12T09:13:08.082Z,17.31
2022-09-12T09:15:10.282Z,17.41
2022-09-12T09:17:12.012Z,17.79
2022-09-12T09:19:13.246Z,17.68
2022-09-12T09:21:14.677Z,17.87
2022-09-12T09:23:16.240Z,17.87
2022-09-12T09:25:20.915Z,18.03
2022-09-12T09:27:37.245Z,18.57
2022-09-12T09:29:19.176Z,18.82
2022-09-12T09:31:20.085Z,18.93
2022-09-12T09:33:21.190Z,19.55
2022-09-12T09:35:22.542Z,20.07
2022-09-12T09:37:23.808Z,20.55
2022-09-12T09:39:24.841Z,20.82
2022-09-12T09:41:26.216Z,20.48
2022-09-12T09:43:27.904Z,20.69
2022-09-12T09:47:30.306Z,21.13
2022-09-12T09:49:31.597Z,20.75
2022-09-12T09:51:32.791Z,21.48
2022-09-12T09:53:34.262Z,20.48
2022-09-12T09:55:35.067Z,20.55
2022-09-12T09:57:36.751Z,20.54
2022-09-12T09:59:38.276Z,21.12
2022-09-12T10:01:39.192Z,21.1
2022-09-12T10:03:40.406Z,21.12
2022-09-12T10:05:41.820Z,21.53
2022-09-12T10:07:43.246Z,21.81
2022-09-12T10:09:44.661Z,21.22
2022-09-12T10:11:46.086Z,21.09
2022-09-12T10:13:47.219Z,21.38
2022-09-12T10:15:49.070Z,21.61
2022-09-12T10:17:50.242Z,22.17
2022-09-12T10:20:04.790Z,22.69
2022-09-12T10:21:52.729Z,22.51
2022-09-12T10:23:53.612Z,22.57
2022-09-12T10:25:54.986Z,21.83
2022-09-12T10:27:56.219Z,21.84
2022-09-12T10:29:57.911Z,21.81
2022-09-12T10:31:59.280Z,21.54
2022-09-12T10:34:00.708Z,21.76
2022-09-12T10:36:01.588Z,21.43
2022-09-12T10:38:02.547Z,20.88
2022-09-12T10:40:04.209Z,21.75
2022-09-12T10:42:05.785Z,21.65
2022-09-12T10:44:07.893Z,22.12
2022-09-12T10:46:09.495Z,22.22
2022-09-12T10:48:11.098Z,22.79
2022-09-12T10:50:22.265Z,21.97
2022-09-12T10:52:14.369Z,22.23
2022-09-12T10:54:16.096Z,22.62
2022-09-12T10:56:17.089Z,23.23
2022-09-12T10:58:17.890Z,22.06
2022-09-12T11:00:18.856Z,21.74
2022-09-12T11:02:19.678Z,21.6
2022-09-12T11:04:20.804Z,21.88
2022-09-12T11:06:22.194Z,22.16
2022-09-12T11:08:23.340Z,22.16
2022-09-12T11:10:24.212Z,22.29
2022-09-12T11:12:25.716Z,22.27
2022-09-12T11:14:27.456Z,21.49
2022-09-12T11:16:28.513Z,22.02
2022-09-12T11:18:29.485Z,22
2022-09-12T11:20:40.195Z,21.77
2022-09-12T11:22:32.878Z,21.54
2022-09-12T11:24:34.578Z,22.2
2022-09-12T11:26:35.456Z,22.46
2022-09-12T11:28:36.545Z,22.6
2022-09-12T11:30:38.227Z,22.38
2022-09-12T11:32:39.388Z,22.36
2022-09-12T11:34:40.756Z,22.51
2022-09-12T11:36:42.412Z,22.66
2022-09-12T11:38:44.099Z,22.15
2022-09-12T11:40:45.319Z,22.22
2022-09-12T11:42:46.143Z,22.13
2022-09-12T11:44:47.500Z,22.2
2022-09-12T11:46:51.669Z,22.09
2022-09-12T11:48:49.904Z,22.26
2022-09-12T11:50:50.682Z,22.74
2022-09-12T11:52:52.457Z,23.19
2022-09-12T11:54:53.993Z,23.45
2022-09-12T11:58:55.473Z,22.9
2022-09-12T12:00:57.003Z,22.74
2022-09-12T12:02:58.344Z,22.65
2022-09-12T12:04:59.767Z,22.37
2022-09-12T12:07:00.823Z,22.85
2022-09-12T12:09:01.799Z,23.64
2022-09-12T12:11:03.165Z,23.49
2022-09-12T12:13:04.673Z,23.26
2022-09-12T12:15:05.696Z,23.82
2022-09-12T12:17:07.361Z,23.74
2022-09-12T12:19:10.658Z,24.07
2022-09-12T12:21:09.841Z,23.36
2022-09-12T12:23:11.338Z,24.02
2022-09-12T12:25:12.522Z,23.44
2022-09-12T12:27:13.987Z,23.73
2022-09-12T12:29:14.804Z,23.64
2022-09-12T12:31:16.412Z,23.38
2022-09-12T12:33:17.841Z,23.73
2022-09-12T12:35:18.890Z,23.59
2022-09-12T12:37:20.302Z,23.08
2022-09-12T12:39:21.326Z,23.32
2022-09-12T12:41:23.070Z,23.13
2022-09-12T12:43:24.249Z,23.35
2022-09-12T12:45:25.937Z,23.26
2022-09-12T12:47:27.297Z,23.69
2022-09-12T12:49:28.480Z,23.31
2022-09-12T12:51:29.554Z,23.81
2022-09-12T12:53:31.189Z,24.12
2022-09-12T12:55:32.616Z,24.42
2022-09-12T12:57:33.453Z,24
2022-09-12T12:59:34.343Z,23.88
2022-09-12T13:01:35.679Z,23.56
2022-09-12T13:03:37.369Z,24.45
2022-09-12T13:05:38.711Z,24.16
2022-09-12T13:07:39.636Z,24.63
2022-09-12T13:09:40.507Z,24.78
2022-09-12T13:11:41.535Z,24.84
2022-09-12T13:13:42.550Z,24.86
2022-09-12T13:15:43.471Z,25.01
2022-09-12T13:17:44.622Z,24.38
2022-09-12T13:19:45.776Z,24.57
2022-09-12T13:21:47.251Z,24.02
2022-09-12T13:23:48.660Z,23.61
2022-09-12T13:25:49.638Z,23.19
2022-09-12T13:27:51.054Z,23.03
2022-09-12T13:32:37.700Z,22.94
2022-09-12T13:34:38.723Z,22.97
2022-09-12T13:36:39.794Z,22.9
2022-09-12T13:38:41.019Z,23.14
2022-09-12T13:40:41.989Z,23.08
2022-09-12T13:42:43.699Z,22.9
2022-09-12T13:44:45.113Z,22.59
2022-09-12T13:48:47.654Z,22.61
2022-09-12T13:50:49.071Z,22.63
2022-09-12T13:52:50.515Z,23.22
2022-09-12T13:54:51.896Z,23.73
2022-09-12T13:56:53.148Z,23.72
2022-09-12T13:58:54.498Z,23.77
2022-09-12T14:00:55.696Z,24.71
2022-09-12T14:02:56.732Z,24.28
2022-09-12T14:04:57.767Z,24.89
2022-09-12T14:06:58.897Z,25.54
2022-09-12T14:09:00.505Z,25.76
2022-09-12T14:11:02.091Z,24.8
2022-09-12T14:13:03.124Z,24.33
2022-09-12T14:15:04.627Z,24.65
2022-09-12T14:17:05.992Z,24.34
2022-09-12T14:19:06.776Z,24.4
2022-09-12T14:21:07.980Z,24.69
2022-09-12T14:23:08.988Z,23.94
2022-09-12T14:25:10.473Z,23.57
2022-09-12T14:27:11.903Z,23.78
2022-09-12T14:31:14.206Z,23.88
2022-09-12T14:33:15.369Z,24.05
2022-09-12T14:35:16.976Z,24.47
2022-09-12T14:37:18.241Z,24.28
2022-09-12T14:39:19.935Z,24.41
2022-09-12T14:41:21.586Z,23.64
2022-09-12T14:43:22.927Z,24.14
2022-09-12T14:45:23.895Z,24.03
2022-09-12T14:47:25.022Z,23.97
2022-09-12T14:49:26.698Z,24.11
2022-09-12T14:51:27.601Z,24.03
2022-09-12T14:53:28.578Z,24.32
2022-09-12T14:55:30.136Z,24.03
2022-09-12T14:57:31.179Z,24.18
2022-09-12T14:59:32.929Z,23.88
2022-09-12T15:01:34.241Z,23.85
2022-09-12T15:03:35.653Z,23.93
2022-09-12T15:05:37.186Z,23.89
2022-09-12T15:07:38.108Z,24.31
2022-09-12T15:09:41.682Z,24.24
2022-09-12T15:11:40.584Z,24.5
2022-09-12T15:13:42.174Z,24.4
2022-09-12T15:15:43.730Z,24.32
2022-09-12T15:17:44.533Z,24.37
2022-09-12T15:19:45.571Z,24.19
2022-09-12T15:21:46.536Z,24.85
2022-09-12T15:23:47.440Z,25.6
2022-09-12T15:25:48.764Z,24.84
2022-09-12T15:27:50.428Z,25.22
2022-09-12T15:29:51.231Z,24.58
2022-09-12T15:31:52.474Z,24.52
2022-09-12T15:33:53.703Z,24.35
2022-09-12T15:35:55.436Z,24.59
2022-09-12T15:37:56.908Z,24.21
2022-09-12T15:39:58.168Z,24
2022-09-12T15:41:59.198Z,24.12
2022-09-12T15:44:00.424Z,24.35
2022-09-12T15:46:02.041Z,23.82
2022-09-12T15:48:03.349Z,23.89
2022-09-12T15:50:04.968Z,23.95
2022-09-12T15:52:06.403Z,24.24
2022-09-12T15:54:07.137Z,23.88
2022-09-12T15:56:08.281Z,23.93
2022-09-12T15:58:09.816Z,23.92
2022-09-12T16:00:10.657Z,23.76
2022-09-12T16:02:11.564Z,23.81
2022-09-12T16:04:13.238Z,23.86
2022-09-12T16:06:14.342Z,23.66
2022-09-12T16:08:15.412Z,23.84
2022-09-12T16:10:17.081Z,23.74
2022-09-12T16:12:17.911Z,23.71
2022-09-12T16:14:19.003Z,23.78
2022-09-12T16:16:20.809Z,23.76
2022-09-12T16:18:21.944Z,23.49
2022-09-12T16:20:22.922Z,23.44
2022-09-12T16:22:24.519Z,23.29
2022-09-12T16:26:27.051Z,23.27
2022-09-12T16:28:28.574Z,23.2
2022-09-12T16:30:29.813Z,23.09
2022-09-12T16:32:31.577Z,23.1
2022-09-12T16:34:32.649Z,23.06
2022-09-12T16:36:34.093Z,22.95
2022-09-12T16:38:35.832Z,22.84
2022-09-12T16:40:36.673Z,22.73
2022-09-12T16:42:40.712Z,22.63
2022-09-12T16:44:39.173Z,22.49
2022-09-12T16:46:40.079Z,22.36
2022-09-12T16:48:40.921Z,22.3
2022-09-12T16:50:41.910Z,22.28
2022-09-12T16:52:43.149Z,22.24
2022-09-12T16:54:44.912Z,22.24
2022-09-12T16:56:45.986Z,22.15
2022-09-12T16:58:47.820Z,22.08
2022-09-12T17:00:49.459Z,22.08
2022-09-12T17:02:51.258Z,21.93
2022-09-12T17:04:52.110Z,21.79
2022-09-12T17:06:53.546Z,21.75
2022-09-12T17:08:54.953Z,21.62
2022-09-12T17:10:55.886Z,21.55
2022-09-12T17:12:56.711Z,21.45
2022-09-12T17:14:58.183Z,21.36
2022-09-12T17:16:59.718Z,21.25
2022-09-12T17:19:00.794Z,21.08
2022-09-12T17:21:01.769Z,21.06
2022-09-12T17:23:06.507Z,20.92
2022-09-12T17:25:05.092Z,20.77
2022-09-12T17:27:06.793Z,20.74
2022-09-12T17:29:07.885Z,20.58
2022-09-12T17:31:09.088Z,20.5
2022-09-12T17:33:10.746Z,20.32
2022-09-12T17:35:11.706Z,20.17
2022-09-12T17:37:12.746Z,19.98
2022-09-12T17:39:14.168Z,19.82
2022-09-12T17:41:15.926Z,19.58
2022-09-12T17:43:17.554Z,19.66
2022-09-12T17:45:18.751Z,19.49
2022-09-12T17:47:20.206Z,19.35
2022-09-12T17:49:21.533Z,19.18
2022-09-12T17:51:22.895Z,19.1
2022-09-12T17:53:24.219Z,18.81
2022-09-12T17:55:25.169Z,18.8
2022-09-12T17:57:26.213Z,18.8
2022-09-12T17:59:27.169Z,18.82
2022-09-12T18:01:28.846Z,18.7
2022-09-12T18:03:30.092Z,18.54
2022-09-12T18:07:32.987Z,18.43
2022-09-12T18:09:34.496Z,18.35
2022-09-12T18:11:36.340Z,18.28
2022-09-12T18:13:37.802Z,18.22
2022-09-12T18:15:38.744Z,18.25
2022-09-12T18:17:40.511Z,18.27
2022-09-12T18:19:41.668Z,18.34
2022-09-12T18:21:43.033Z,18.38
2022-09-12T18:23:43.961Z,18.38
2022-09-12T18:25:44.858Z,18.44
2022-09-12T18:27:46.158Z,18.58
2022-09-12T18:29:59.045Z,18.37
2022-09-12T18:31:48.708Z,18.33
2022-09-12T18:33:49.620Z,18.24
2022-09-12T18:35:50.980Z,17.79
2022-09-12T18:37:52.638Z,17.47
2022-09-12T18:39:53.809Z,17.55
2022-09-12T18:41:54.845Z,17.06
2022-09-12T18:43:56.629Z,17.56
2022-09-12T18:45:57.706Z,17.5
2022-09-12T18:47:58.665Z,17.1
2022-09-12T18:50:00.055Z,17.38
2022-09-12T18:52:01.256Z,17.56
2022-09-12T18:54:02.303Z,17.45
2022-09-12T18:56:04.173Z,17.28
2022-09-12T18:58:05.670Z,17.08
2022-09-12T19:00:10.571Z,16.53
2022-09-12T19:02:07.731Z,16.26
2022-09-12T19:04:09.054Z,16.03
2022-09-12T19:06:11.683Z,15.99
2022-09-12T19:08:12.353Z,15.8
2022-09-12T19:10:13.629Z,15.76
2022-09-12T19:12:14.646Z,15.7
2022-09-12T19:14:15.951Z,15.69
2022-09-12T19:16:17.556Z,15.69
2022-09-12T19:18:18.435Z,15.8
2022-09-12T19:20:20.248Z,15.8
2022-09-12T19:22:21.665Z,15.82
2022-09-12T19:24:22.654Z,15.85
2022-09-12T19:26:24.382Z,15.9
2022-09-12T19:28:25.321Z,15.91
2022-09-12T19:30:26.939Z,15.84
2022-09-12T19:32:28.175Z,15.89
2022-09-12T19:34:29.090Z,16.03
2022-09-12T19:36:45.204Z,15.96
2022-09-12T19:38:31.862Z,15.85
2022-09-12T19:40:33.459Z,15.82
2022-09-12T19:42:34.587Z,15.8
2022-09-12T19:44:36.303Z,15.76
2022-09-12T19:48:38.935Z,15.81
2022-09-12T19:50:40.163Z,15.74
2022-09-12T19:52:41.820Z,15.58
2022-09-12T19:54:43.079Z,15.49
2022-09-12T19:56:44.274Z,15.4
2022-09-12T19:58:45.479Z,15.32
2022-09-12T20:00:46.823Z,15.37
2022-09-12T20:02:48.301Z,15.38
2022-09-12T20:04:49.615Z,15.4
2022-09-12T20:06:51.269Z,15.34
2022-09-12T20:08:52.731Z,15.3
2022-09-12T20:10:57.008Z,15.23
2022-09-12T20:12:56.090Z,15.19
2022-09-12T20:13:39.879Z,15.22
2022-09-12T20:15:41.775Z,15.14
2022-09-12T20:17:42.685Z,15.05
2022-09-12T20:19:44.188Z,14.89
2022-09-12T20:21:45.534Z,14.91
2022-09-12T20:23:46.982Z,14.87
2022-09-12T20:25:47.914Z,14.83
2022-09-12T20:27:48.863Z,14.79
2022-09-12T20:29:50.319Z,14.8
2022-09-12T20:31:52.043Z,14.81
2022-09-12T20:33:53.866Z,14.73
2022-09-12T20:35:54.985Z,14.67
2022-09-12T20:37:56.124Z,14.54
2022-09-12T20:39:57.039Z,14.5
2022-09-12T20:41:57.937Z,14.44
2022-09-12T20:43:59.430Z,14.55
2022-09-12T20:46:00.580Z,14.6
2022-09-12T20:48:02.273Z,14.5
2022-09-12T20:50:03.647Z,14.59
2022-09-12T20:52:04.797Z,14.51
2022-09-12T20:56:07.685Z,14.26
2022-09-12T20:58:09.230Z,14.13
2022-09-12T21:00:10.585Z,13.93
2022-09-12T21:02:12.310Z,13.92
2022-09-12T21:04:15.063Z,13.9
2022-09-12T21:06:14.304Z,13.91
2022-09-12T21:08:15.388Z,13.88
2022-09-12T21:10:16.919Z,13.84
2022-09-12T21:12:18.365Z,13.87
2022-09-12T21:14:19.809Z,13.84
2022-09-12T21:16:21.076Z,13.83
2022-09-12T21:18:22.247Z,13.88
2022-09-12T21:20:23.338Z,13.83
2022-09-12T21:22:24.784Z,13.79
2022-09-12T21:24:26.161Z,13.77
2022-09-12T21:26:27.534Z,13.76
2022-09-12T21:28:29.176Z,13.71
2022-09-12T21:30:30.701Z,13.64
2022-09-12T21:32:32.406Z,13.59
2022-09-12T21:34:33.605Z,13.63
2022-09-12T21:36:34.833Z,13.57
2022-09-12T21:38:36.331Z,13.51
2022-09-12T21:40:37.293Z,13.5
2022-09-12T21:42:38.356Z,13.42
2022-09-12T21:44:39.295Z,13.42
2022-09-12T21:46:40.975Z,13.37
2022-09-12T21:48:42.217Z,13.37
2022-09-12T21:50:43.914Z,13.31
2022-09-12T21:52:44.872Z,13.25
2022-09-12T21:54:46.381Z,13.14
2022-09-12T21:56:48.268Z,13.01
2022-09-12T21:58:49.430Z,12.84
2022-09-12T22:00:50.903Z,12.78
2022-09-12T22:02:52.296Z,12.8
2022-09-12T22:04:53.253Z,12.75
2022-09-12T22:06:54.542Z,12.63
2022-09-12T22:08:56.258Z,12.63
2022-09-12T22:10:57.713Z,12.59
2022-09-12T22:12:58.871Z,12.55
2022-09-12T22:15:05.846Z,12.51
2022-09-12T22:17:01.849Z,12.51
2022-09-12T22:19:02.798Z,12.51
2022-09-12T22:21:04.243Z,12.42
2022-09-12T22:23:05.956Z,12.57
2022-09-12T22:25:07.137Z,12.63
2022-09-12T22:27:08.139Z,12.66
2022-09-12T22:29:09.457Z,12.58
2022-09-12T22:31:11.253Z,12.59
2022-09-12T22:33:12.964Z,12.55
2022-09-12T22:37:15.383Z,12.46
2022-09-12T22:39:16.517Z,12.44
2022-09-12T22:41:18.339Z,12.39
2022-09-12T22:43:19.518Z,12.34
2022-09-12T22:45:20.505Z,12.36
2022-09-12T22:47:22.048Z,12.32
2022-09-12T22:49:23.731Z,12.26
2022-09-12T22:51:24.845Z,12.31
2022-09-12T22:53:26.043Z,12.21
2022-09-12T22:55:27.791Z,12.18
2022-09-12T22:57:29.495Z,12.19
2022-09-12T22:59:30.876Z,12.19
2022-09-12T23:01:32.625Z,12.17
2022-09-12T23:03:34.456Z,12.06
2022-09-12T23:05:35.687Z,12
2022-09-12T23:07:36.921Z,11.91
2022-09-12T23:09:38.725Z,11.96
2022-09-12T23:11:39.719Z,11.94
2022-09-12T23:13:41.327Z,11.89
2022-09-12T23:15:42.633Z,11.91
2022-09-12T23:17:43.708Z,11.97
2022-09-12T23:19:45.294Z,12.01
2022-09-12T23:21:46.756Z,11.91
2022-09-12T23:23:48.448Z,11.83
2022-09-12T23:25:50.088Z,11.75
2022-09-12T23:27:51.957Z,11.66
2022-09-12T23:29:53.063Z,11.76
2022-09-12T23:31:54.655Z,11.74
2022-09-12T23:33:56.453Z,11.81
2022-09-12T23:35:58.116Z,11.82
2022-09-12T23:37:59.688Z,11.89
2022-09-12T23:40:01.392Z,11.83
2022-09-12T23:42:02.999Z,11.85
2022-09-12T23:44:04.819Z,11.78
2022-09-12T23:46:06.688Z,11.8
2022-09-12T23:48:08.303Z,11.85
2022-09-12T23:50:09.946Z,11.81
2022-09-12T23:52:11.818Z,11.68
2022-09-12T23:54:13.336Z,11.54
2022-09-12T23:56:15.011Z,11.53
2022-09-12T23:58:16.351Z,11.55
